createdAt,value
2023-05-02T00:00:14.069Z,1.13
2023-05-02T00:01:14.061Z,1.12
2023-05-02T00:02:14.171Z,1.09
2023-05-02T00:03:14.096Z,1.10
2023-05-02T00:04:14.113Z,1.10
2023-05-02T00:05:13.994Z,1.11
2023-05-02T00:06:14.044Z,1.11
2023-05-02T00:07:13.963Z,1.11
2023-05-02T00:08:13.948Z,1.11
2023-05-02T00:09:13.933Z,1.11
2023-05-02T00:10:13.924Z,1.11
2023-05-02T00:11:13.902Z,1.11
2023-05-02T00:12:13.877Z,1.12
2023-05-02T00:13:13.870Z,1.10
2023-05-02T00:14:13.875Z,1.11
2023-05-02T00:15:13.863Z,1.11
2023-05-02T00:16:13.850Z,1.12
2023-05-02T00:17:13.946Z,1.11
2023-05-02T00:18:13.910Z,1.08
2023-05-02T00:19:13.849Z,1.09
2023-05-02T00:20:13.884Z,1.13
2023-05-02T00:21:13.867Z,1.14
2023-05-02T00:22:13.882Z,1.11
2023-05-02T00:23:13.874Z,1.10
2023-05-02T00:24:13.854Z,1.11
2023-05-02T00:25:13.858Z,1.11
2023-05-02T00:26:13.847Z,1.11
2023-05-02T00:27:13.824Z,1.12
2023-05-02T00:28:13.878Z,1.11
2023-05-02T00:29:13.828Z,1.09
2023-05-02T00:30:13.809Z,1.09
2023-05-02T00:31:13.840Z,1.13
2023-05-02T00:32:13.799Z,1.14
2023-05-02T00:33:13.826Z,1.13
2023-05-02T00:34:13.782Z,1.13
2023-05-02T00:35:13.771Z,1.14
2023-05-02T00:36:13.759Z,1.10
2023-05-02T00:37:13.744Z,1.09
2023-05-02T00:38:13.722Z,1.10
2023-05-02T00:39:13.727Z,1.11
2023-05-02T00:40:13.716Z,1.08
2023-05-02T00:41:13.762Z,1.11
2023-05-02T00:42:13.690Z,1.11
2023-05-02T00:43:13.687Z,1.12
2023-05-02T00:44:13.680Z,1.11
2023-05-02T00:45:13.673Z,1.10
2023-05-02T00:46:13.738Z,1.15
2023-05-02T00:47:13.661Z,1.10
2023-05-02T00:48:13.709Z,1.08
2023-05-02T00:49:13.645Z,1.10
2023-05-02T00:50:13.748Z,1.12
2023-05-02T00:51:13.629Z,1.11
2023-05-02T00:52:13.630Z,1.11
2023-05-02T00:53:13.635Z,1.11
2023-05-02T00:54:13.612Z,1.14
2023-05-02T00:55:13.596Z,1.10
2023-05-02T00:56:13.680Z,1.15
2023-05-02T00:57:13.679Z,1.13
2023-05-02T00:58:13.641Z,1.10
2023-05-02T00:59:13.692Z,1.10
2023-05-02T01:00:13.696Z,1.10
2023-05-02T01:01:13.772Z,1.10
2023-05-02T01:02:13.728Z,1.11
2023-05-02T01:03:13.724Z,1.09
2023-05-02T01:04:13.871Z,1.10
2023-05-02T01:05:13.673Z,1.10
2023-05-02T01:06:13.715Z,1.12
2023-05-02T01:07:13.676Z,1.10
2023-05-02T01:08:13.661Z,1.11
2023-05-02T01:09:13.668Z,1.11
2023-05-02T01:10:13.677Z,1.12
2023-05-02T01:11:13.706Z,1.13
2023-05-02T01:12:13.696Z,1.10
2023-05-02T01:13:13.697Z,1.14
2023-05-02T01:14:13.717Z,1.15
2023-05-02T01:15:13.721Z,1.08
2023-05-02T01:16:13.748Z,1.10
2023-05-02T01:17:13.734Z,1.13
2023-05-02T01:18:13.892Z,1.10
2023-05-02T01:19:13.787Z,1.11
2023-05-02T01:20:13.807Z,1.12
2023-05-02T01:21:13.811Z,1.11
2023-05-02T01:22:13.817Z,1.12
2023-05-02T01:23:13.830Z,1.08
2023-05-02T01:24:13.853Z,1.10
2023-05-02T01:25:13.858Z,1.12
2023-05-02T01:26:13.882Z,1.13
2023-05-02T01:27:13.887Z,1.12
2023-05-02T01:28:13.913Z,1.13
2023-05-02T01:29:13.929Z,1.09
2023-05-02T01:30:13.946Z,1.13
2023-05-02T01:31:14.019Z,1.09
2023-05-02T01:32:13.968Z,1.10
2023-05-02T01:33:14.044Z,1.10
2023-05-02T01:34:14.001Z,1.12
2023-05-02T01:35:13.995Z,1.10
2023-05-02T01:36:14.012Z,1.11
2023-05-02T01:37:14.029Z,1.09
2023-05-02T01:38:14.037Z,1.12
2023-05-02T01:39:14.033Z,1.12
2023-05-02T01:40:14.047Z,1.09
2023-05-02T01:41:14.057Z,1.07
2023-05-02T01:42:14.064Z,1.11
2023-05-02T01:43:14.070Z,1.10
2023-05-02T01:44:14.069Z,1.09
2023-05-02T01:45:14.073Z,1.10
2023-05-02T01:46:14.092Z,1.09
2023-05-02T01:47:14.145Z,1.12
2023-05-02T01:48:14.095Z,1.09
2023-05-02T01:49:14.117Z,1.09
2023-05-02T01:50:14.125Z,1.13
2023-05-02T01:51:14.136Z,1.13
2023-05-02T01:52:14.135Z,1.09
2023-05-02T01:53:14.156Z,1.10
2023-05-02T01:54:14.177Z,1.12
2023-05-02T01:55:14.178Z,1.10
2023-05-02T01:56:14.213Z,1.12
2023-05-02T01:57:14.211Z,1.11
2023-05-02T01:58:14.235Z,1.10
2023-05-02T01:59:14.241Z,1.13
2023-05-02T02:00:14.235Z,1.09
2023-05-02T02:01:14.238Z,1.09
2023-05-02T02:02:14.212Z,1.10
2023-05-02T02:03:14.260Z,1.10
2023-05-02T02:04:14.266Z,1.12
2023-05-02T02:05:14.199Z,1.12
2023-05-02T02:06:14.210Z,1.13
2023-05-02T02:07:14.179Z,1.14
2023-05-02T02:08:14.166Z,1.14
2023-05-02T02:09:14.150Z,1.12
2023-05-02T02:10:14.148Z,1.12
2023-05-02T02:11:14.150Z,1.12
2023-05-02T02:12:14.138Z,1.10
2023-05-02T02:13:14.135Z,1.11
2023-05-02T02:14:14.150Z,1.09
2023-05-02T02:15:14.128Z,1.11
2023-05-02T02:16:14.218Z,1.12
2023-05-02T02:17:14.104Z,1.11
2023-05-02T02:18:14.162Z,1.12
2023-05-02T02:19:14.086Z,1.11
2023-05-02T02:20:14.075Z,1.12
2023-05-02T02:21:14.076Z,1.12
2023-05-02T02:22:14.079Z,1.13
2023-05-02T02:23:14.044Z,1.12
2023-05-02T02:24:14.050Z,1.08
2023-05-02T02:25:14.034Z,1.07
2023-05-02T02:26:14.019Z,1.08
2023-05-02T02:27:14.006Z,1.11
2023-05-02T02:28:14.014Z,1.11
2023-05-02T02:29:13.991Z,1.11
2023-05-02T02:30:13.978Z,1.11
2023-05-02T02:31:14.008Z,1.12
2023-05-02T02:32:13.962Z,1.10
2023-05-02T02:33:13.989Z,1.11
2023-05-02T02:34:13.936Z,1.12
2023-05-02T02:35:13.937Z,1.12
2023-05-02T02:36:13.906Z,1.13
2023-05-02T02:37:13.896Z,1.12
2023-05-02T02:38:13.867Z,1.11
2023-05-02T02:39:13.876Z,1.13
2023-05-02T02:40:13.837Z,1.11
2023-05-02T02:41:13.842Z,1.10
2023-05-02T02:42:13.969Z,1.09
2023-05-02T02:43:13.788Z,1.12
2023-05-02T02:44:13.856Z,1.11
2023-05-02T02:45:13.764Z,1.11
2023-05-02T02:46:13.789Z,1.07
2023-05-02T02:47:13.746Z,1.10
2023-05-02T02:48:13.771Z,1.10
2023-05-02T02:49:13.744Z,1.08
2023-05-02T02:50:13.733Z,1.10
2023-05-02T02:51:13.723Z,1.10
2023-05-02T02:52:13.718Z,1.06
2023-05-02T02:53:13.716Z,1.08
2023-05-02T02:54:25.923Z,1.11
2023-05-02T02:55:14.693Z,1.11
2023-05-02T02:56:13.689Z,1.11
2023-05-02T02:57:13.677Z,1.12
2023-05-02T02:58:13.654Z,1.13
2023-05-02T02:59:13.631Z,1.13
2023-05-02T03:00:13.635Z,1.12
2023-05-02T03:01:13.692Z,1.11
2023-05-02T03:02:13.692Z,1.08
2023-05-02T03:03:13.680Z,1.10
2023-05-02T03:04:13.713Z,1.12
2023-05-02T03:05:13.647Z,1.11
2023-05-02T03:06:13.666Z,1.11
2023-05-02T03:07:13.621Z,1.11
2023-05-02T03:08:13.591Z,1.11
2023-05-02T03:09:13.584Z,1.12
2023-05-02T03:10:13.580Z,1.10
2023-05-02T03:11:13.589Z,1.12
2023-05-02T03:12:13.574Z,1.13
2023-05-02T03:13:13.559Z,1.09
2023-05-02T03:14:13.549Z,1.08
2023-05-02T03:15:13.544Z,1.12
2023-05-02T03:16:13.560Z,1.11
2023-05-02T03:17:13.536Z,1.11
2023-05-02T03:18:13.574Z,1.12
2023-05-02T03:19:13.503Z,1.12
2023-05-02T03:20:13.503Z,1.14
2023-05-02T03:21:13.477Z,1.11
2023-05-02T03:22:13.470Z,1.11
2023-05-02T03:23:13.450Z,1.11
2023-05-02T03:24:13.443Z,1.11
2023-05-02T03:25:13.450Z,1.10
2023-05-02T03:26:13.445Z,1.11
2023-05-02T03:27:13.423Z,1.09
2023-05-02T03:28:13.408Z,1.12
2023-05-02T03:29:13.443Z,1.12
2023-05-02T03:30:13.456Z,1.14
2023-05-02T03:31:13.421Z,1.13
2023-05-02T03:32:13.455Z,1.10
2023-05-02T03:33:13.388Z,1.10
2023-05-02T03:34:13.358Z,1.13
2023-05-02T03:35:13.338Z,1.12
2023-05-02T03:36:13.359Z,1.10
2023-05-02T03:37:13.353Z,1.11
2023-05-02T03:38:13.358Z,1.11
2023-05-02T03:39:13.309Z,1.11
2023-05-02T03:40:13.325Z,1.11
2023-05-02T03:41:13.282Z,1.11
2023-05-02T03:42:13.363Z,1.12
2023-05-02T03:43:13.265Z,1.13
2023-05-02T03:44:13.298Z,1.12
2023-05-02T03:45:13.299Z,1.11
2023-05-02T03:46:13.339Z,1.09
2023-05-02T03:47:13.621Z,1.14
2023-05-02T03:48:13.263Z,1.12
2023-05-02T03:49:13.288Z,1.12
2023-05-02T03:50:13.240Z,1.13
2023-05-02T03:51:13.189Z,1.13
2023-05-02T03:52:13.190Z,1.13
2023-05-02T03:53:13.147Z,1.12
2023-05-02T03:54:13.183Z,1.13
2023-05-02T03:55:13.120Z,1.15
2023-05-02T03:56:13.107Z,1.13
2023-05-02T03:57:13.113Z,1.10
2023-05-02T03:58:13.107Z,1.11
2023-05-02T03:59:13.083Z,1.11
2023-05-02T04:00:13.071Z,1.09
2023-05-02T04:01:13.068Z,1.08
2023-05-02T04:02:13.099Z,1.11
2023-05-02T04:03:13.113Z,1.12
2023-05-02T04:04:13.106Z,1.09
2023-05-02T04:05:13.022Z,1.13
2023-05-02T04:06:13.378Z,1.11
2023-05-02T04:07:13.025Z,1.09
2023-05-02T04:08:13.003Z,1.09
2023-05-02T04:09:13.018Z,1.08
2023-05-02T04:10:13.036Z,1.10
2023-05-02T04:11:13.049Z,1.11
2023-05-02T04:12:12.976Z,1.11
2023-05-02T04:13:12.989Z,1.09
2023-05-02T04:14:13.075Z,1.09
2023-05-02T04:15:12.955Z,1.08
2023-05-02T04:16:13.075Z,1.10
2023-05-02T04:17:13.063Z,1.11
2023-05-02T04:18:13.065Z,1.11
2023-05-02T04:19:12.992Z,1.10
2023-05-02T04:20:12.964Z,1.11
2023-05-02T04:21:12.925Z,1.10
2023-05-02T04:22:12.917Z,1.13
2023-05-02T04:23:12.924Z,1.11
2023-05-02T04:24:12.922Z,1.12
2023-05-02T04:25:12.911Z,1.08
2023-05-02T04:26:12.883Z,1.08
2023-05-02T04:27:15.163Z,1.09
2023-05-02T04:28:13.034Z,1.10
2023-05-02T04:29:13.006Z,1.10
2023-05-02T04:30:13.010Z,1.13
2023-05-02T04:31:13.077Z,1.13
2023-05-02T04:32:13.102Z,1.13
2023-05-02T04:33:13.082Z,1.13
2023-05-02T04:34:13.129Z,1.12
2023-05-02T04:35:13.073Z,1.09
2023-05-02T04:36:13.002Z,1.10
2023-05-02T04:37:13.076Z,1.13
2023-05-02T04:38:13.067Z,1.12
2023-05-02T04:39:13.017Z,1.13
2023-05-02T04:40:12.978Z,1.14
2023-05-02T04:41:12.960Z,1.14
2023-05-02T04:42:13.017Z,1.11
2023-05-02T04:43:12.905Z,1.13
2023-05-02T04:44:12.889Z,1.12
2023-05-02T04:45:12.875Z,1.11
2023-05-02T04:46:12.887Z,1.11
2023-05-02T04:47:12.859Z,1.13
2023-05-02T04:48:13.002Z,1.10
2023-05-02T04:49:12.836Z,1.10
2023-05-02T04:50:12.817Z,1.13
2023-05-02T04:51:14.276Z,1.13
2023-05-02T04:52:12.793Z,1.13
2023-05-02T04:53:12.771Z,1.13
2023-05-02T04:54:12.769Z,1.14
2023-05-02T04:55:12.817Z,1.13
2023-05-02T04:56:12.756Z,1.12
2023-05-02T04:57:12.749Z,1.12
2023-05-02T04:58:12.781Z,1.11
2023-05-02T04:59:12.719Z,1.10
2023-05-02T05:00:12.725Z,1.10
2023-05-02T05:01:12.719Z,1.14
2023-05-02T05:02:12.870Z,1.14
2023-05-02T05:03:12.761Z,1.12
2023-05-02T05:04:12.804Z,1.11
2023-05-02T05:05:12.698Z,1.13
2023-05-02T05:06:12.827Z,1.12
2023-05-02T05:07:12.651Z,1.10
2023-05-02T05:08:12.645Z,1.13
2023-05-02T05:09:12.621Z,1.13
2023-05-02T05:10:12.624Z,1.11
2023-05-02T05:11:12.583Z,1.10
2023-05-02T05:12:12.587Z,1.13
2023-05-02T05:13:12.571Z,1.13
2023-05-02T05:14:12.568Z,1.12
2023-05-02T05:15:12.586Z,1.11
2023-05-02T05:16:12.619Z,1.10
2023-05-02T05:17:12.569Z,1.12
2023-05-02T05:18:12.575Z,1.13
2023-05-02T05:19:12.528Z,1.10
2023-05-02T05:20:12.529Z,1.09
2023-05-02T05:21:12.506Z,1.10
2023-05-02T05:22:12.508Z,1.13
2023-05-02T05:23:12.502Z,1.11
2023-05-02T05:24:12.493Z,1.07
2023-05-02T05:25:12.482Z,1.07
2023-05-02T05:26:12.495Z,1.08
2023-05-02T05:27:12.472Z,1.08
2023-05-02T05:28:12.459Z,1.09
2023-05-02T05:29:12.445Z,1.13
2023-05-02T05:30:12.469Z,1.11
2023-05-02T05:31:13.998Z,1.13
2023-05-02T05:32:12.516Z,1.12
2023-05-02T05:33:12.551Z,1.11
2023-05-02T05:34:12.521Z,1.11
2023-05-02T05:35:12.399Z,1.12
2023-05-02T05:36:12.396Z,1.12
2023-05-02T05:37:12.385Z,1.15
2023-05-02T05:38:12.405Z,1.25
2023-05-02T05:39:12.598Z,1.27
2023-05-02T05:40:12.342Z,1.33
2023-05-02T05:41:12.318Z,1.38
2023-05-02T05:42:12.321Z,1.49
2023-05-02T05:43:12.293Z,1.50
2023-05-02T05:44:12.270Z,1.57
2023-05-02T05:45:12.266Z,1.77
2023-05-02T05:46:12.253Z,1.85
2023-05-02T05:47:12.288Z,1.98
2023-05-02T05:48:12.288Z,2.21
2023-05-02T05:49:12.223Z,2.49
2023-05-02T05:50:12.213Z,2.78
2023-05-02T05:51:12.228Z,3.10
2023-05-02T05:52:12.183Z,3.12
2023-05-02T05:53:12.178Z,3.18
2023-05-02T05:54:12.157Z,3.33
2023-05-02T05:55:12.132Z,3.66
2023-05-02T05:56:12.125Z,4.11
2023-05-02T05:57:12.112Z,4.21
2023-05-02T05:58:12.132Z,4.20
2023-05-02T05:59:12.089Z,4.19
2023-05-02T06:00:12.165Z,4.19
2023-05-02T06:01:12.068Z,4.31
2023-05-02T06:02:12.095Z,4.37
2023-05-02T06:03:12.070Z,4.36
2023-05-02T06:04:12.252Z,4.35
2023-05-02T06:05:12.075Z,4.50
2023-05-02T06:06:12.132Z,4.58
2023-05-02T06:07:12.003Z,4.59
2023-05-02T06:08:12.004Z,4.70
2023-05-02T06:09:11.979Z,4.69
2023-05-02T06:10:11.982Z,4.70
2023-05-02T06:11:12.006Z,4.64
2023-05-02T06:12:11.955Z,4.61
2023-05-02T06:13:11.994Z,4.57
2023-05-02T06:14:11.942Z,4.58
2023-05-02T06:15:11.938Z,4.58
2023-05-02T06:16:12.032Z,4.44
2023-05-02T06:17:11.918Z,4.57
2023-05-02T06:18:11.912Z,4.55
2023-05-02T06:19:11.930Z,4.56
2023-05-02T06:20:11.898Z,4.35
2023-05-02T06:21:11.954Z,4.34
2023-05-02T06:22:11.985Z,4.30
2023-05-02T06:23:11.931Z,4.31
2023-05-02T06:24:12.000Z,4.31
2023-05-02T06:25:11.899Z,4.24
2023-05-02T06:26:12.873Z,4.22
2023-05-02T06:27:11.942Z,4.16
2023-05-02T06:28:12.082Z,4.16
2023-05-02T06:29:12.047Z,4.12
2023-05-02T06:30:11.947Z,4.03
2023-05-02T06:31:12.019Z,4.01
2023-05-02T06:32:11.956Z,4.03
2023-05-02T06:33:12.061Z,3.89
2023-05-02T06:34:12.033Z,3.90
2023-05-02T06:35:11.923Z,3.94
2023-05-02T06:36:11.880Z,3.85
2023-05-02T06:37:11.994Z,3.86
2023-05-02T06:38:11.954Z,3.87
2023-05-02T06:39:11.967Z,3.86
2023-05-02T06:40:11.908Z,3.87
2023-05-02T06:41:12.042Z,3.82
2023-05-02T06:42:11.908Z,3.70
2023-05-02T06:43:11.875Z,3.61
2023-05-02T06:44:11.801Z,3.80
2023-05-02T06:45:11.782Z,3.70
2023-05-02T06:46:11.841Z,3.88
2023-05-02T06:47:11.859Z,3.89
2023-05-02T06:48:11.839Z,4.06
2023-05-02T06:49:11.761Z,4.22
2023-05-02T06:50:11.704Z,4.49
2023-05-02T06:51:11.831Z,4.58
2023-05-02T06:52:11.818Z,4.81
2023-05-02T06:53:11.813Z,4.83
2023-05-02T06:54:11.916Z,4.90
2023-05-02T06:55:11.777Z,5.11
2023-05-02T06:56:11.767Z,5.56
2023-05-02T06:57:11.792Z,6.23
2023-05-02T06:58:11.811Z,6.52
2023-05-02T06:59:11.719Z,6.55
2023-05-02T07:00:11.729Z,6.65
2023-05-02T07:01:11.772Z,6.99
2023-05-02T07:02:11.679Z,7.57
2023-05-02T07:03:11.716Z,8.74
2023-05-02T07:04:11.701Z,9.19
2023-05-02T07:05:11.622Z,9.73
2023-05-02T07:06:11.654Z,9.75
2023-05-02T07:07:11.598Z,9.84
2023-05-02T07:08:11.611Z,10.04
2023-05-02T07:09:11.560Z,10.74
2023-05-02T07:10:11.530Z,11.81
2023-05-02T07:11:11.641Z,12.10
2023-05-02T07:12:11.622Z,12.67
2023-05-02T07:13:11.549Z,13.09
2023-05-02T07:14:11.637Z,13.43
2023-05-02T07:15:11.492Z,13.78
2023-05-02T07:16:11.501Z,13.83
2023-05-02T07:17:12.386Z,13.96
2023-05-02T07:18:11.472Z,14.37
2023-05-02T07:19:11.423Z,15.20
2023-05-02T07:20:11.410Z,16.61
2023-05-02T07:21:11.338Z,17.19
2023-05-02T07:22:11.296Z,17.45
2023-05-02T07:23:11.315Z,18.22
2023-05-02T07:24:11.260Z,18.56
2023-05-02T07:25:11.293Z,19.61
2023-05-02T07:26:11.215Z,19.79
2023-05-02T07:27:11.255Z,20.24
2023-05-02T07:28:11.214Z,20.90
2023-05-02T07:29:11.149Z,21.08
2023-05-02T07:30:11.231Z,21.43
2023-05-02T07:31:11.092Z,22.16
2023-05-02T07:32:11.138Z,21.99
2023-05-02T07:33:11.110Z,22.88
2023-05-02T07:34:11.044Z,23.04
2023-05-02T07:35:11.906Z,23.63
2023-05-02T07:36:10.991Z,24.14
2023-05-02T07:37:11.005Z,24.00
2023-05-02T07:38:11.018Z,24.71
2023-05-02T07:39:11.051Z,25.12
2023-05-02T07:40:10.902Z,25.16
2023-05-02T07:41:10.930Z,25.25
2023-05-02T07:42:10.983Z,25.17
2023-05-02T07:43:11.314Z,24.67
2023-05-02T07:44:10.830Z,24.47
2023-05-02T07:45:10.789Z,23.73
2023-05-02T07:46:10.920Z,21.56
2023-05-02T07:47:10.738Z,5.09
2023-05-02T07:48:10.762Z,1.65
2023-05-02T07:49:10.709Z,0.97
2023-05-02T07:50:10.688Z,0.71
2023-05-02T07:51:10.725Z,0.54
2023-05-02T07:52:10.654Z,0.34
2023-05-02T07:53:10.660Z,0.34
2023-05-02T07:54:10.646Z,0.34
2023-05-02T07:55:10.634Z,0.34
2023-05-02T07:56:10.627Z,0.34
2023-05-02T07:57:10.601Z,0.34
2023-05-02T07:58:10.665Z,0.34
2023-05-02T07:59:10.604Z,0.34
2023-05-02T08:00:10.598Z,0.34
2023-05-02T08:01:10.611Z,0.34
2023-05-02T08:02:11.172Z,0.34
2023-05-02T08:03:10.764Z,0.34
2023-05-02T08:04:10.839Z,0.34
2023-05-02T08:05:10.695Z,0.34
2023-05-02T08:06:10.650Z,0.34
2023-05-02T08:07:10.576Z,0.34
2023-05-02T08:08:10.601Z,0.34
2023-05-02T08:09:10.579Z,0.34
2023-05-02T08:10:10.574Z,0.34
2023-05-02T08:11:10.579Z,0.34
2023-05-02T08:12:10.558Z,0.34
2023-05-02T08:13:10.605Z,0.34
2023-05-02T08:14:10.613Z,0.34
2023-05-02T08:15:10.553Z,0.34
2023-05-02T08:16:10.579Z,0.34
2023-05-02T08:17:10.536Z,0.34
2023-05-02T08:18:10.642Z,0.34
2023-05-02T08:19:10.559Z,0.34
2023-05-02T08:20:10.530Z,0.34
2023-05-02T08:21:10.563Z,0.34
2023-05-02T08:22:10.521Z,0.34
2023-05-02T08:23:10.501Z,0.34
2023-05-02T08:24:10.496Z,0.34
2023-05-02T08:25:10.510Z,0.34
2023-05-02T08:26:10.507Z,0.34
2023-05-02T08:27:10.507Z,0.34
2023-05-02T08:28:10.509Z,0.34
2023-05-02T08:29:10.484Z,0.34
2023-05-02T08:30:10.482Z,0.34
2023-05-02T08:31:10.510Z,0.34
2023-05-02T08:32:10.594Z,0.34
2023-05-02T08:33:10.628Z,0.37
2023-05-02T08:34:10.489Z,0.41
2023-05-02T08:35:10.457Z,0.47
2023-05-02T08:36:10.462Z,0.52
2023-05-02T08:37:10.673Z,0.51
2023-05-02T08:38:10.499Z,0.51
2023-05-02T08:39:10.461Z,0.50
2023-05-02T08:40:10.499Z,0.50
2023-05-02T08:41:10.459Z,0.51
2023-05-02T08:42:10.565Z,0.51
2023-05-02T08:43:10.548Z,0.50
2023-05-02T08:44:10.679Z,0.54
2023-05-02T08:45:10.685Z,0.52
2023-05-02T08:46:10.754Z,0.58
2023-05-02T08:47:10.906Z,0.68
2023-05-02T08:48:10.971Z,0.98
2023-05-02T08:49:10.919Z,1.35
2023-05-02T08:50:10.962Z,2.08
2023-05-02T08:51:10.990Z,2.72
2023-05-02T08:52:11.015Z,3.81
2023-05-02T08:53:11.051Z,4.69
2023-05-02T08:54:11.053Z,5.70
2023-05-02T08:55:11.036Z,7.16
2023-05-02T08:56:11.069Z,8.87
2023-05-02T08:57:11.056Z,11.43
2023-05-02T08:58:11.071Z,14.91
2023-05-02T09:00:29.919Z,0.50
2023-05-02T09:01:29.955Z,0.50
2023-05-02T09:02:30.016Z,0.50
2023-05-02T09:03:29.911Z,0.50
2023-05-02T09:04:29.927Z,0.50
2023-05-02T09:05:29.994Z,1.13
2023-05-02T09:06:30.045Z,3.93
2023-05-02T09:07:29.941Z,5.11
2023-05-02T09:08:29.931Z,4.96
2023-05-02T09:09:29.894Z,4.15
2023-05-02T09:10:29.916Z,3.66
2023-05-02T09:11:29.906Z,3.52
2023-05-02T09:12:30.051Z,3.40
2023-05-02T09:13:29.921Z,3.45
2023-05-02T09:14:29.908Z,3.46
2023-05-02T09:15:29.904Z,3.46
2023-05-02T09:16:29.933Z,3.55
2023-05-02T09:17:29.928Z,3.67
2023-05-02T09:18:29.892Z,3.47
2023-05-02T09:19:29.888Z,3.55
2023-05-02T09:20:29.900Z,3.48
2023-05-02T09:21:29.905Z,3.58
2023-05-02T09:22:29.912Z,3.86
2023-05-02T09:23:29.873Z,4.39
2023-05-02T09:24:29.891Z,5.24
2023-05-02T09:25:29.865Z,5.63
2023-05-02T09:26:31.605Z,5.77
2023-05-02T09:27:29.843Z,6.99
2023-05-02T09:28:29.942Z,9.30
2023-05-02T09:29:29.869Z,10.31
2023-05-02T09:30:29.871Z,9.47
2023-05-02T09:31:49.792Z,9.26
2023-05-02T09:32:30.933Z,9.25
2023-05-02T09:33:29.858Z,9.16
2023-05-02T09:34:29.821Z,8.96
2023-05-02T09:35:29.827Z,9.39
2023-05-02T09:36:29.825Z,9.81
2023-05-02T09:37:29.789Z,9.77
2023-05-02T09:38:29.793Z,10.22
2023-05-02T09:39:29.792Z,10.12
2023-05-02T09:40:29.766Z,10.24
2023-05-02T09:41:29.814Z,9.76
2023-05-02T09:42:29.795Z,10.07
2023-05-02T09:43:29.799Z,9.22
2023-05-02T09:44:29.767Z,9.61
2023-05-02T09:45:29.762Z,9.27
2023-05-02T09:46:29.790Z,8.87
2023-05-02T09:47:29.778Z,7.28
2023-05-02T09:48:29.737Z,5.95
2023-05-02T09:49:29.751Z,5.23
2023-05-02T09:50:29.714Z,4.79
2023-05-02T09:51:29.716Z,4.64
2023-05-02T09:52:29.741Z,3.79
2023-05-02T09:53:29.753Z,3.47
2023-05-02T09:54:29.723Z,3.04
2023-05-02T09:55:29.746Z,2.65
2023-05-02T09:56:29.734Z,2.39
2023-05-02T09:57:29.753Z,2.03
2023-05-02T09:58:30.725Z,1.79
2023-05-02T09:59:30.020Z,1.58
2023-05-02T10:00:29.829Z,1.49
2023-05-02T10:01:29.740Z,1.65
2023-05-02T10:02:29.954Z,1.71
2023-05-02T10:03:29.916Z,1.58
2023-05-02T10:04:29.978Z,1.55
2023-05-02T10:05:30.092Z,1.48
2023-05-02T10:06:29.800Z,1.50
2023-05-02T10:07:29.703Z,1.44
2023-05-02T10:08:29.787Z,1.43
2023-05-02T10:09:29.695Z,1.43
2023-05-02T10:10:29.918Z,1.50
2023-05-02T10:11:29.780Z,1.50
2023-05-02T10:12:29.795Z,1.45
2023-05-02T10:13:29.825Z,1.45
2023-05-02T10:14:29.857Z,1.53
2023-05-02T10:15:29.834Z,1.53
2023-05-02T10:16:30.201Z,1.53
2023-05-02T10:17:29.937Z,1.54
2023-05-02T10:18:29.865Z,1.63
2023-05-02T10:19:29.925Z,1.79
2023-05-02T10:20:29.914Z,1.82
2023-05-02T10:21:29.874Z,1.92
2023-05-02T10:22:29.874Z,2.04
2023-05-02T10:23:29.887Z,2.17
2023-05-02T10:24:29.879Z,2.25
2023-05-02T10:25:29.872Z,2.20
2023-05-02T10:26:29.886Z,2.28
2023-05-02T10:27:29.877Z,2.36
2023-05-02T10:28:29.902Z,2.36
2023-05-02T10:29:29.883Z,2.40
2023-05-02T10:30:29.886Z,2.50
2023-05-02T10:31:29.907Z,2.47
2023-05-02T10:32:29.992Z,2.57
2023-05-02T10:33:29.939Z,2.54
2023-05-02T10:34:29.912Z,2.58
2023-05-02T10:35:29.919Z,2.54
2023-05-02T10:36:29.912Z,2.62
2023-05-02T10:37:29.926Z,2.63
2023-05-02T10:38:29.920Z,2.58
2023-05-02T10:39:29.928Z,2.63
2023-05-02T10:40:29.955Z,2.64
2023-05-02T10:41:29.984Z,2.65
2023-05-02T10:42:30.007Z,2.58
2023-05-02T10:43:30.030Z,2.57
2023-05-02T10:44:30.059Z,2.63
2023-05-02T10:45:30.111Z,2.65
2023-05-02T10:46:30.171Z,2.60
2023-05-02T10:47:30.170Z,2.61
2023-05-02T10:48:30.163Z,2.65
2023-05-02T10:49:30.179Z,2.57
2023-05-02T10:50:30.203Z,2.56
2023-05-02T10:51:30.240Z,2.58
2023-05-02T10:52:30.277Z,2.58
2023-05-02T10:53:30.243Z,2.58
2023-05-02T10:54:30.241Z,2.57
2023-05-02T10:55:30.257Z,2.56
2023-05-02T10:56:30.243Z,2.58
2023-05-02T10:57:30.284Z,2.58
2023-05-02T10:58:30.265Z,2.56
2023-05-02T10:59:30.254Z,2.51
2023-05-02T11:00:30.299Z,2.51
2023-05-02T11:01:30.471Z,2.48
2023-05-02T11:02:30.307Z,2.49
2023-05-02T11:03:30.284Z,2.44
2023-05-02T11:04:30.259Z,2.49
2023-05-02T11:05:30.263Z,2.45
2023-05-02T11:06:30.365Z,2.37
2023-05-02T11:07:30.311Z,2.38
2023-05-02T11:08:30.268Z,2.38
2023-05-02T11:09:30.234Z,2.37
2023-05-02T11:10:30.238Z,2.33
2023-05-02T11:11:30.231Z,2.35
2023-05-02T11:12:30.298Z,2.33
2023-05-02T11:13:31.090Z,2.35
2023-05-02T11:14:30.381Z,2.37
2023-05-02T11:15:30.245Z,2.30
2023-05-02T11:16:30.285Z,2.31
2023-05-02T11:17:30.293Z,2.32
2023-05-02T11:18:30.249Z,2.28
2023-05-02T11:19:31.582Z,2.26
2023-05-02T11:20:32.125Z,2.24
2023-05-02T11:21:30.318Z,2.23
2023-05-02T11:22:30.330Z,2.26
2023-05-02T11:23:30.420Z,2.22
2023-05-02T11:24:30.402Z,2.21
2023-05-02T11:25:30.922Z,2.21
2023-05-02T11:26:30.436Z,2.21
2023-05-02T11:27:30.605Z,2.18
2023-05-02T11:28:30.680Z,2.18
2023-05-02T11:29:30.608Z,2.17
2023-05-02T11:30:30.568Z,2.12
2023-05-02T11:31:30.600Z,2.13
2023-05-02T11:32:30.754Z,2.13
2023-05-02T11:33:30.556Z,2.12
2023-05-02T11:34:30.550Z,2.07
2023-05-02T11:35:30.545Z,2.05
2023-05-02T11:36:30.566Z,2.02
2023-05-02T11:37:30.554Z,2.01
2023-05-02T11:38:30.559Z,2.00
2023-05-02T11:39:30.565Z,2.00
2023-05-02T11:40:30.633Z,2.00
2023-05-02T11:41:30.584Z,2.01
2023-05-02T11:42:30.605Z,2.01
2023-05-02T11:43:31.943Z,1.98
2023-05-02T11:44:30.566Z,1.99
2023-05-02T11:45:30.591Z,1.95
2023-05-02T11:46:30.612Z,1.96
2023-05-02T11:47:30.616Z,1.95
2023-05-02T11:48:30.561Z,1.92
2023-05-02T11:49:30.544Z,1.95
2023-05-02T11:50:30.549Z,1.92
2023-05-02T11:51:30.545Z,1.91
2023-05-02T11:52:30.597Z,1.89
2023-05-02T11:53:30.544Z,1.90
2023-05-02T11:54:30.548Z,1.87
2023-05-02T11:55:30.547Z,1.91
2023-05-02T11:56:30.536Z,1.85
2023-05-02T11:57:30.529Z,1.82
2023-05-02T11:58:30.565Z,1.83
2023-05-02T11:59:30.588Z,1.86
2023-05-02T12:00:31.546Z,1.79
2023-05-02T12:01:30.744Z,1.81
2023-05-02T12:02:30.773Z,1.83
2023-05-02T12:03:30.884Z,1.82
2023-05-02T12:04:30.735Z,1.78
2023-05-02T12:05:30.814Z,1.78
2023-05-02T12:06:30.816Z,1.77
2023-05-02T12:07:30.811Z,1.78
2023-05-02T12:08:30.853Z,1.74
2023-05-02T12:09:30.881Z,1.72
2023-05-02T12:10:30.901Z,1.72
2023-05-02T12:11:30.923Z,1.71
2023-05-02T12:12:30.968Z,1.73
2023-05-02T12:13:31.009Z,1.71
2023-05-02T12:14:31.028Z,1.71
2023-05-02T12:15:31.124Z,1.66
2023-05-02T12:16:31.127Z,1.66
2023-05-02T12:17:31.144Z,1.66
2023-05-02T12:18:31.142Z,1.66
2023-05-02T12:19:31.167Z,1.63
2023-05-02T12:20:31.213Z,1.60
2023-05-02T12:21:31.250Z,1.60
2023-05-02T12:22:31.244Z,1.61
2023-05-02T12:23:31.243Z,1.57
2023-05-02T12:24:31.238Z,1.61
2023-05-02T12:25:31.253Z,1.58
2023-05-02T12:26:31.268Z,1.59
2023-05-02T12:27:31.235Z,1.61
2023-05-02T12:28:31.242Z,1.61
2023-05-02T12:29:31.223Z,1.61
2023-05-02T12:30:31.244Z,1.60
2023-05-02T12:31:31.471Z,1.61
2023-05-02T12:32:31.268Z,1.55
2023-05-02T12:33:31.245Z,1.56
2023-05-02T12:34:31.272Z,1.52
2023-05-02T12:35:31.321Z,1.53
2023-05-02T12:36:31.212Z,1.51
2023-05-02T12:37:31.221Z,1.50
2023-05-02T12:38:31.236Z,1.51
2023-05-02T12:39:31.239Z,1.50
2023-05-02T12:40:31.242Z,1.47
2023-05-02T12:41:31.273Z,1.47
2023-05-02T12:42:31.252Z,1.48
2023-05-02T12:43:31.254Z,1.42
2023-05-02T12:44:31.276Z,1.44
2023-05-02T12:45:31.248Z,1.43
2023-05-02T12:46:31.352Z,1.45
2023-05-02T12:47:31.253Z,1.44
2023-05-02T12:48:31.292Z,1.41
2023-05-02T12:49:31.325Z,1.39
2023-05-02T12:50:31.360Z,1.37
2023-05-02T12:51:31.417Z,1.39
2023-05-02T12:52:31.445Z,1.37
2023-05-02T12:53:31.509Z,1.37
2023-05-02T12:54:31.513Z,1.38
2023-05-02T12:55:31.549Z,1.39
2023-05-02T12:56:31.550Z,1.36
2023-05-02T12:57:31.618Z,1.37
2023-05-02T12:58:31.664Z,1.38
2023-05-02T12:59:31.690Z,1.33
2023-05-02T13:00:31.703Z,1.34
2023-05-02T13:01:31.769Z,1.35
2023-05-02T13:02:31.779Z,1.33
2023-05-02T13:03:31.837Z,1.32
2023-05-02T13:04:31.820Z,1.32
2023-05-02T13:05:31.853Z,1.28
2023-05-02T13:06:32.002Z,1.31
2023-05-02T13:07:31.924Z,1.29
2023-05-02T13:08:31.975Z,1.28
2023-05-02T13:09:32.032Z,1.26
2023-05-02T13:10:32.010Z,1.26
2023-05-02T13:11:32.053Z,1.24
2023-05-02T13:12:32.081Z,1.26
2023-05-02T13:13:32.167Z,1.23
2023-05-02T13:14:32.198Z,1.22
2023-05-02T13:15:32.189Z,1.22
2023-05-02T13:16:32.317Z,1.23
2023-05-02T13:17:32.384Z,1.21